createdAt,value
2023-05-19T00:00:38.979Z,77.13
2023-05-19T00:03:10.100Z,75.60
2023-05-19T00:05:46.815Z,73.15
2023-05-19T00:08:19.951Z,77.72
2023-05-19T00:10:50.040Z,74.25
2023-05-19T00:13:19.727Z,73.93
2023-05-19T00:15:49.703Z,71.03
2023-05-19T00:18:19.402Z,69.38
2023-05-19T00:20:48.899Z,63.58
2023-05-19T00:23:18.187Z,66.68
2023-05-19T00:25:47.666Z,69.07
2023-05-19T00:28:17.306Z,74.57
2023-05-19T00:30:47.072Z,69.45
2023-05-19T00:33:16.325Z,74.30
2023-05-19T00:35:45.747Z,68.13
2023-05-19T00:38:15.062Z,79.28
2023-05-19T00:40:44.940Z,79.20
2023-05-19T00:43:14.587Z,83.78
2023-05-19T00:45:44.460Z,81.43
2023-05-19T00:48:13.729Z,82.65
2023-05-19T00:50:43.549Z,81.10
2023-05-19T00:53:14.374Z,81.85
2023-05-19T00:55:44.537Z,72.63
2023-05-19T00:58:15.542Z,72.53
2023-05-19T01:00:46.711Z,74.25
2023-05-19T01:03:21.484Z,73.95
2023-05-19T01:05:54.760Z,76.22
2023-05-19T01:08:24.682Z,77.90
2023-05-19T01:10:59.052Z,71.72
2023-05-19T01:13:47.328Z,67.53
2023-05-19T01:16:23.580Z,70.05
2023-05-19T01:19:14.222Z,70.95
2023-05-19T01:21:58.447Z,69.57
2023-05-19T01:25:01.680Z,71.78
2023-05-19T01:28:02.803Z,74.00
2023-05-19T01:30:38.621Z,72.97
2023-05-19T01:33:17.823Z,83.40
2023-05-19T01:35:49.113Z,79.70
2023-05-19T01:38:21.877Z,75.05
2023-05-19T01:40:53.046Z,68.85
2023-05-19T01:43:25.608Z,69.90
2023-05-19T01:45:56.542Z,77.88
2023-05-19T01:48:32.112Z,67.07
2023-05-19T01:51:03.809Z,67.82
2023-05-19T01:53:34.047Z,59.08
2023-05-19T01:56:04.598Z,58.88
2023-05-19T01:58:40.006Z,51.08
2023-05-19T02:01:18.566Z,54.58
2023-05-19T02:04:14.629Z,49.40
2023-05-19T02:07:02.890Z,46.47
2023-05-19T02:09:41.778Z,41.15
2023-05-19T02:12:32.784Z,45.72
2023-05-19T02:15:13.171Z,37.83
2023-05-19T02:17:48.869Z,36.38
2023-05-19T02:20:19.329Z,37.47
2023-05-19T02:22:49.237Z,38.53
2023-05-19T02:25:18.776Z,36.65
2023-05-19T02:27:50.227Z,33.45
2023-05-19T02:30:19.858Z,36.83
2023-05-19T02:32:49.430Z,45.75
2023-05-19T02:35:19.063Z,43.03
2023-05-19T02:37:48.528Z,38.97
2023-05-19T02:40:17.805Z,46.17
2023-05-19T02:42:47.396Z,53.85
2023-05-19T02:45:16.792Z,46.28
2023-05-19T02:47:46.685Z,32.00
2023-05-19T02:50:16.089Z,33.67
2023-05-19T02:52:45.561Z,37.67
2023-05-19T02:55:18.261Z,34.47
2023-05-19T02:57:47.674Z,31.52
2023-05-19T03:00:17.493Z,38.95
2023-05-19T03:02:47.416Z,34.40
2023-05-19T03:05:16.997Z,35.75
2023-05-19T03:07:46.806Z,34.08
2023-05-19T03:10:16.349Z,29.73
2023-05-19T03:12:45.617Z,24.20
2023-05-19T03:15:16.185Z,28.52
2023-05-19T03:17:46.097Z,25.38
2023-05-19T03:20:17.002Z,26.95
2023-05-19T03:22:46.685Z,34.58
2023-05-19T03:25:19.174Z,30.67
2023-05-19T03:27:48.780Z,28.90
2023-05-19T03:30:18.286Z,32.85
2023-05-19T03:33:13.808Z,24.00
2023-05-19T03:35:45.517Z,25.85
2023-05-19T03:38:16.475Z,21.55
2023-05-19T03:40:54.789Z,19.23
2023-05-19T03:43:24.517Z,22.77
2023-05-19T03:46:00.808Z,13.18
2023-05-19T03:48:48.990Z,11.05
2023-05-19T03:51:18.681Z,12.23
2023-05-19T03:53:50.086Z,15.93
2023-05-19T03:56:24.192Z,17.67
2023-05-19T03:58:56.685Z,16.25
2023-05-19T04:01:26.212Z,14.55
2023-05-19T04:03:55.697Z,16.23
2023-05-19T04:06:25.468Z,14.55
2023-05-19T04:08:56.350Z,15.23
2023-05-19T04:11:25.859Z,13.45
2023-05-19T04:13:55.050Z,13.30
2023-05-19T04:16:24.614Z,15.48
2023-05-19T04:18:54.009Z,14.98
2023-05-19T04:21:23.625Z,13.98
2023-05-19T04:23:56.675Z,18.63
2023-05-19T04:26:31.945Z,19.33
2023-05-19T04:29:03.166Z,17.75
2023-05-19T04:31:32.854Z,19.10
2023-05-19T04:34:04.624Z,21.40
2023-05-19T04:36:35.073Z,24.02
2023-05-19T04:41:41.535Z,21.00
2023-05-19T04:44:11.305Z,27.67
2023-05-19T04:46:41.052Z,22.80
2023-05-19T04:49:16.487Z,24.63
2023-05-19T04:51:47.304Z,28.50
2023-05-19T04:54:17.019Z,30.05
2023-05-19T04:56:46.789Z,26.67
2023-05-19T04:59:16.984Z,23.15
2023-05-19T05:01:46.598Z,21.65
2023-05-19T05:04:18.338Z,17.90
2023-05-19T05:06:49.144Z,17.10
2023-05-19T05:09:23.261Z,30.27
2023-05-19T05:11:53.248Z,20.58
2023-05-19T05:14:23.142Z,15.18
2023-05-19T05:16:53.142Z,25.77
2023-05-19T05:19:26.030Z,22.20
2023-05-19T05:21:56.991Z,15.95
2023-05-19T05:24:27.273Z,15.80
2023-05-19T05:27:00.997Z,14.90
2023-05-19T05:29:32.390Z,15.50
2023-05-19T05:32:03.566Z,18.50
2023-05-19T05:34:33.779Z,14.75
2023-05-19T05:37:03.041Z,15.65
2023-05-19T05:39:39.068Z,11.07
2023-05-19T05:42:29.543Z,10.40
2023-05-19T05:44:59.578Z,7.82
2023-05-19T05:47:29.567Z,13.10
2023-05-19T05:49:59.748Z,10.05
2023-05-19T05:52:32.039Z,7.88
2023-05-19T05:55:03.226Z,6.35
2023-05-19T05:57:32.929Z,8.23
2023-05-19T06:00:02.536Z,7.55
2023-05-19T06:02:34.187Z,7.80
2023-05-19T06:05:03.827Z,5.38
2023-05-19T06:07:33.631Z,6.90
2023-05-19T06:10:03.798Z,8.05
2023-05-19T06:12:43.479Z,7.95
2023-05-19T06:15:14.355Z,8.98
2023-05-19T06:18:00.658Z,8.98
2023-05-19T06:20:31.210Z,7.65
2023-05-19T06:23:02.919Z,7.65
2023-05-19T06:25:32.856Z,5.63
2023-05-19T06:28:03.329Z,6.38
2023-05-19T06:30:33.105Z,6.45
2023-05-19T06:33:17.839Z,6.22
2023-05-19T06:35:47.418Z,4.82
2023-05-19T06:38:18.764Z,6.03
2023-05-19T06:40:48.561Z,5.80
2023-05-19T06:43:17.863Z,7.82
2023-05-19T06:45:57.060Z,7.95
2023-05-19T06:48:28.022Z,8.40
2023-05-19T06:50:57.820Z,5.80
2023-05-19T06:53:27.820Z,5.90
2023-05-19T06:55:59.869Z,5.28
2023-05-19T06:58:35.386Z,7.47
2023-05-19T07:01:07.684Z,8.05
2023-05-19T07:03:44.516Z,6.53
2023-05-19T07:06:18.753Z,4.50
2023-05-19T07:08:49.291Z,5.07
2023-05-19T07:11:19.950Z,7.30
2023-05-19T07:13:51.067Z,7.25
2023-05-19T07:16:26.772Z,4.45
2023-05-19T07:19:23.752Z,6.90
2023-05-19T07:22:04.948Z,5.22
2023-05-19T07:24:43.875Z,7.40
2023-05-19T07:27:33.816Z,4.78
2023-05-19T07:30:35.653Z,4.32
2023-05-19T07:33:42.022Z,5.50
2023-05-19T07:39:54.760Z,6.82
2023-05-19T07:42:32.386Z,6.57
2023-05-19T07:45:24.918Z,8.23
2023-05-19T07:48:15.429Z,12.63
2023-05-19T07:50:56.167Z,6.50
2023-05-19T07:53:48.648Z,7.53
2023-05-19T07:57:01.507Z,5.47
2023-05-19T07:59:59.444Z,6.03
2023-05-19T08:02:47.430Z,6.20
2023-05-19T08:05:58.901Z,6.88
2023-05-19T08:08:48.246Z,6.20
2023-05-19T08:11:41.502Z,6.53
2023-05-19T08:14:30.274Z,9.10
2023-05-19T08:20:40.272Z,7.03
2023-05-19T08:23:36.361Z,8.02
2023-05-19T08:26:25.773Z,7.20
2023-05-19T08:29:38.062Z,5.00
2023-05-19T08:32:38.163Z,4.82
2023-05-19T08:35:33.211Z,4.45
2023-05-19T08:41:31.341Z,9.23
2023-05-19T08:44:26.387Z,8.57
2023-05-19T08:47:27.340Z,6.10
2023-05-19T08:50:11.570Z,4.00
2023-05-19T08:53:00.222Z,6.50
2023-05-19T08:55:51.548Z,4.63
2023-05-19T08:58:34.090Z,3.85
2023-05-19T09:03:43.378Z,3.67
2023-05-19T09:06:28.476Z,6.05
2023-05-19T09:09:05.467Z,4.60
2023-05-19T09:11:39.948Z,5.07
2023-05-19T09:14:12.525Z,10.02
2023-05-19T09:16:47.013Z,4.30
2023-05-19T09:19:21.238Z,6.43
2023-05-19T09:22:09.119Z,7.13
2023-05-19T09:24:43.877Z,5.03
2023-05-19T09:27:30.349Z,5.78
2023-05-19T09:30:11.394Z,6.22
2023-05-19T09:35:48.594Z,5.30
2023-05-19T09:38:25.570Z,6.93
2023-05-19T09:41:04.403Z,3.85
2023-05-19T09:43:41.962Z,4.03
2023-05-19T09:46:19.812Z,3.45
2023-05-19T09:49:03.888Z,3.30
2023-05-19T09:51:54.467Z,3.15
2023-05-19T09:54:39.096Z,4.15
2023-05-19T09:57:11.639Z,4.00
2023-05-19T09:59:46.630Z,3.45
2023-05-19T10:02:23.750Z,3.67
2023-05-19T10:05:04.371Z,4.72
2023-05-19T10:07:41.216Z,4.65
2023-05-19T10:10:32.426Z,4.55
2023-05-19T10:13:11.049Z,4.30
2023-05-19T10:15:58.223Z,4.22
2023-05-19T10:18:39.987Z,4.68
2023-05-19T10:21:10.783Z,3.25
2023-05-19T10:23:40.461Z,3.13
2023-05-19T10:26:11.358Z,3.97
2023-05-19T10:28:44.840Z,4.70
2023-05-19T10:31:21.650Z,3.40
2023-05-19T12:15:09.736Z,5.78
2023-05-19T12:34:25.124Z,7.35
2023-05-19T12:37:15.469Z,7.45
2023-05-19T13:06:57.427Z,4.97
2023-05-19T13:16:56.229Z,5.75
2023-05-19T14:09:01.877Z,6.70
2023-05-19T15:44:32.340Z,7.97
2023-05-19T16:01:26.441Z,6.80
2023-05-19T16:25:41.763Z,7.93
2023-05-19T17:00:41.489Z,8.63
2023-05-19T18:03:18.995Z,11.48
